Time;durP1;ratioP1;P1;durP2;ratioP2;P2;SDS_P1;SDS_P2;PMS_P1;PMS_P2;Temp;Humidity;BMP_temperature;BMP_pressure;BME280_temperature;BME280_humidity;BME280_pressure;Samples;Min_cycle;Max_cycle;Signal;HPM_P1;HPM_P2
2022/07/14 00:02:14;;;;;;;1.70;1.00;;;;;;;23.33;44.05;100085.44;10557998;22;20622;-73
2022/07/14 00:07:16;;;;;;;1.08;0.85;;;;;;;23.62;44.07;100084.81;10547109;28;20040;-73
2022/07/14 00:12:18;;;;;;;2.10;0.82;;;;;;;23.28;44.74;100084.13;10526847;28;20055;-72
2022/07/14 00:17:19;;;;;;;2.22;0.90;;;;;;;23.19;45.70;100084.88;10545293;28;20043;-72
2022/07/14 00:22:21;;;;;;;1.23;1.00;;;;;;;23.18;45.65;100084.03;10528075;28;20071;-72
2022/07/14 00:27:28;;;;;;;1.15;0.90;;;;;;;23.01;46.38;100082.75;10546523;28;20036;-73
2022/07/14 00:32:30;;;;;;;3.30;0.95;;;;;;;23.05;46.24;100084.22;10526703;28;20048;-73
2022/07/14 00:37:31;;;;;;;3.20;1.00;;;;;;;22.64;47.32;100082.22;10544900;28;20040;-73
2022/07/14 00:42:39;;;;;;;2.28;0.90;;;;;;;22.51;47.63;100089.53;10544497;28;20128;-72
2022/07/14 00:47:42;;;;;;;2.15;1.00;;;;;;;22.52;48.01;100092.09;10525775;28;20122;-73
2022/07/14 00:52:45;;;;;;;6.00;1.02;;;;;;;22.41;48.60;100081.41;10525562;28;20044;-72
2022/07/14 00:57:47;;;;;;;2.50;1.23;;;;;;;22.29;49.05;100082.38;10543535;28;20063;-73
2022/07/14 01:02:49;;;;;;;1.38;0.90;;;;;;;22.01;49.90;100086.38;10525925;28;20051;-73
2022/07/14 01:07:51;;;;;;;3.85;1.55;;;;;;;22.15;49.32;100091.50;10544387;28;20044;-72
2022/07/14 01:13:05;;;;;;;4.13;1.35;;;;;;;22.05;49.83;100099.41;10543306;28;20032;-72
2022/07/14 01:18:06;;;;;;;3.15;1.10;;;;;;;22.06;50.10;100100.25;10543360;28;20036;-72
2022/07/14 01:23:08;;;;;;;1.20;1.00;;;;;;;21.91;50.44;100104.94;10543474;28;20512;-72
2022/07/14 01:28:10;;;;;;;4.25;1.15;;;;;;;21.72;51.18;100102.84;10543172;28;20078;-72
2022/07/14 01:33:12;;;;;;;2.90;1.30;;;;;;;21.60;51.70;100103.78;10524853;28;20493;-72
2022/07/14 01:38:16;;;;;;;3.20;1.40;;;;;;;21.66;51.53;100104.19;10543692;28;20512;-72
2022/07/14 01:43:18;;;;;;;1.63;1.17;;;;;;;21.62;51.73;100110.75;10524951;28;20115;-72
2022/07/14 01:48:19;;;;;;;2.03;1.23;;;;;;;21.81;51.41;100112.84;10542126;28;20036;-71
2022/07/14 01:53:21;;;;;;;3.47;1.60;;;;;;;21.62;52.30;100116.09;10542276;28;20040;-72
2022/07/14 01:58:23;;;;;;;2.33;1.10;;;;;;;21.30;53.15;100112.31;10524321;28;20122;-73
2022/07/14 02:03:26;;;;;;;2.30;1.20;;;;;;;21.50;52.52;100127.72;10523986;28;20047;-72
2022/07/14 02:08:29;;;;;;;2.13;1.20;;;;;;;21.46;52.97;100128.91;10523616;28;20036;-72
2022/07/14 02:13:31;;;;;;;3.63;1.30;;;;;;;21.52;53.28;100133.81;10523928;28;20052;-72
2022/07/14 02:18:32;;;;;;;2.83;1.20;;;;;;;21.44;53.29;100130.00;10523261;28;20101;-72
2022/07/14 02:23:34;;;;;;;1.52;1.40;;;;;;;21.19;54.07;100133.63;10523084;28;20048;-72
2022/07/14 02:28:36;;;;;;;2.58;1.50;;;;;;;20.89;54.76;100126.88;10522593;28;20036;-73
2022/07/14 02:33:38;;;;;;;3.15;1.25;;;;;;;20.78;54.97;100138.38;10525393;28;20493;-73
2022/07/14 02:38:40;;;;;;;1.73;1.20;;;;;;;20.83;54.93;100128.19;10532412;28;20044;-73
2022/07/14 02:43:42;;;;;;;4.18;1.30;;;;;;;20.80;54.94;100123.06;10532351;28;20044;-72
2022/07/14 02:48:44;;;;;;;1.38;1.27;;;;;;;20.98;54.63;100131.56;10532602;28;20509;-72
2022/07/14 02:53:46;;;;;;;5.57;1.50;;;;;;;20.94;54.75;100132.78;10550216;28;20063;-73
2022/07/14 02:58:49;;;;;;;2.67;1.40;;;;;;;20.76;55.76;100136.75;10532025;28;20063;-72
2022/07/14 03:03:51;;;;;;;1.92;1.35;;;;;;;20.66;55.92;100139.25;10531263;28;20127;-72
2022/07/14 03:08:53;;;;;;;1.50;1.30;;;;;;;20.48;56.27;100130.75;10531200;28;20051;-73
2022/07/14 03:13:55;;;;;;;2.38;1.42;;;;;;;20.23;56.93;100131.63;10547662;28;20062;-72
2022/07/14 03:18:58;;;;;;;3.65;1.70;;;;;;;20.03;57.76;100149.00;10530790;28;20417;-71
2022/07/14 03:24:00;;;;;;;1.55;1.35;;;;;;;20.14;57.16;100149.13;10531984;28;20083;-72
2022/07/14 03:29:05;;;;;;;2.08;1.30;;;;;;;20.24;57.16;100156.50;10530523;28;20428;-72
2022/07/14 03:34:07;;;;;;;1.85;1.50;;;;;;;20.02;57.47;100149.13;10530174;28;20044;-73
2022/07/14 03:39:13;;;;;;;1.92;1.40;;;;;;;19.94;57.60;100152.31;10531851;28;20052;-72
2022/07/14 03:44:15;;;;;;;2.67;1.60;;;;;;;20.03;57.44;100151.66;10529252;28;20048;-71
2022/07/14 03:49:17;;;;;;;2.00;1.20;;;;;;;19.88;57.83;100156.25;10530149;28;20097;-73
2022/07/14 03:54:20;;;;;;;2.75;1.30;;;;;;;19.94;57.81;100162.97;10546987;28;20504;-72
2022/07/14 03:59:22;;;;;;;2.15;1.58;;;;;;;20.00;58.01;100167.88;10547721;28;20082;-73
2022/07/14 04:04:25;;;;;;;1.70;1.60;;;;;;;19.93;58.24;100177.28;10529925;28;20093;-72
2022/07/14 04:09:27;;;;;;;1.83;1.40;;;;;;;20.23;57.23;100184.13;10528837;28;20040;-74
2022/07/14 04:14:30;;;;;;;2.35;1.63;;;;;;;20.11;57.41;100186.69;10528278;28;20040;-72
2022/07/14 04:19:31;;;;;;;2.85;1.35;;;;;;;20.15;57.57;100182.84;10528532;28;20090;-73
2022/07/14 04:24:33;;;;;;;2.35;1.60;;;;;;;20.25;57.04;100175.06;10528118;28;20044;-73
2022/07/14 04:29:35;;;;;;;1.45;1.27;;;;;;;20.32;57.11;100181.69;10544590;28;20048;-73
2022/07/14 04:34:37;;;;;;;2.53;1.58;;;;;;;20.49;56.43;100180.50;10527259;28;20048;-73
2022/07/14 04:39:38;;;;;;;2.67;1.70;;;;;;;20.42;56.86;100180.06;10526988;28;20051;-72
2022/07/14 04:44:43;;;;;;;3.38;1.60;;;;;;;20.56;56.77;100175.59;10510483;28;20048;-72
2022/07/14 04:55:14;;;;;;;3.58;2.58;;;;;;;20.37;57.01;100197.38;10528412;28;20048;-72
2022/07/14 05:00:32;;;;;;;3.00;1.83;;;;;;;20.44;56.94;100203.97;10526538;28;20074;-72
2022/07/14 05:05:34;;;;;;;2.85;1.80;;;;;;;20.62;57.09;100205.38;10528420;28;20066;-73
2022/07/14 05:10:35;;;;;;;2.72;1.70;;;;;;;20.83;55.67;100210.16;10523109;28;20056;-72
2022/07/14 05:15:37;;;;;;;2.78;1.98;;;;;;;20.80;56.09;100195.19;10539154;28;20112;-72
2022/07/14 05:20:40;;;;;;;2.78;2.00;;;;;;;20.89;55.68;100202.59;10520856;28;20111;-73
2022/07/14 05:25:42;;;;;;;3.33;1.50;;;;;;;21.16;55.34;100220.22;10521146;28;20635;-73
2022/07/14 05:30:44;;;;;;;4.65;1.80;;;;;;;21.16;55.02;100229.13;10538651;28;20127;-72
2022/07/14 05:35:46;;;;;;;3.33;1.90;;;;;;;21.63;53.70;100219.44;10518934;28;20044;-72
2022/07/14 05:40:48;;;;;;;3.47;2.00;;;;;;;21.77;53.61;100217.53;10537323;28;20043;-72
2022/07/14 05:45:50;;;;;;;2.55;1.83;;;;;;;21.52;54.79;100221.22;10519431;28;20040;-73
2022/07/14 05:50:52;;;;;;;6.50;2.40;;;;;;;21.45;54.56;100225.31;10538948;28;20493;-71
2022/07/14 05:55:54;;;;;;;2.28;2.08;;;;;;;21.50;54.42;100232.00;10539337;28;20039;-71
2022/07/14 06:00:56;;;;;;;3.05;2.05;;;;;;;21.38;55.11;100238.25;10540138;22;20484;-70
2022/07/14 06:06:00;;;;;;;3.85;2.08;;;;;;;21.20;54.91;100236.91;10514050;28;20054;-70
2022/07/14 06:11:03;;;;;;;2.65;2.10;;;;;;;21.17;55.58;100236.19;10514325;28;20127;-70
2022/07/14 06:16:07;;;;;;;3.83;2.10;;;;;;;21.05;55.63;100237.06;10513823;28;20036;-70
2022/07/14 06:21:09;;;;;;;4.30;2.20;;;;;;;20.92;56.45;100231.75;10513331;28;20084;-69
2022/07/14 06:26:12;;;;;;;1.60;1.50;;;;;;;21.47;55.21;100226.91;10513208;28;20147;-68
2022/07/14 06:31:17;;;;;;;3.95;1.75;;;;;;;21.86;54.47;100219.53;10496532;28;20052;-69
2022/07/14 06:36:20;;;;;;;2.85;2.30;;;;;;;21.58;54.73;100223.44;10511539;28;20044;-69
2022/07/14 06:41:22;;;;;;;2.95;1.80;;;;;;;21.65;55.04;100241.59;10510857;28;20570;-69
2022/07/14 06:46:27;;;;;;;3.25;1.77;;;;;;;21.49;55.14;100237.50;10511527;28;20040;-68
2022/07/14 06:51:32;;;;;;;2.67;1.83;;;;;;;21.84;54.63;100249.09;10511319;28;20056;-69
2022/07/14 06:56:33;;;;;;;4.32;1.95;;;;;;;22.39;53.03;100242.22;10529162;28;20044;-69
2022/07/14 07:01:37;;;;;;;3.30;1.90;;;;;;;21.79;53.06;100243.22;10510492;28;20131;-69
2022/07/14 07:06:46;;;;;;;3.22;1.77;;;;;;;21.74;53.97;100244.56;10512407;28;20071;-68
2022/07/14 07:11:49;;;;;;;2.47;1.52;;;;;;;22.20;52.97;100241.09;10510896;28;20470;-67
2022/07/14 07:16:51;;;;;;;1.95;1.60;;;;;;;21.60;54.27;100240.22;10510268;28;20522;-69
2022/07/14 07:21:53;;;;;;;4.47;1.73;;;;;;;21.92;53.73;100233.31;10533926;28;20440;-69
2022/07/14 07:26:57;;;;;;;3.05;1.67;;;;;;;21.51;55.47;100223.03;10537717;28;20048;-69
2022/07/14 07:32:00;;;;;;;2.88;1.52;;;;;;;21.62;54.40;100211.53;10537926;28;20123;-69
2022/07/14 07:37:03;;;;;;;1.88;1.52;;;;;;;22.24;52.73;100211.28;10538115;28;20094;-69
2022/07/14 07:42:25;;;;;;;2.35;1.38;;;;;;;22.53;51.45;100200.09;10537338;28;20048;-69
2022/07/14 07:47:27;;;;;;;3.53;1.60;;;;;;;22.60;50.11;100201.31;10536009;28;20040;-68
2022/07/14 07:52:29;;;;;;;2.13;1.30;;;;;;;22.98;49.83;100198.31;10536427;28;20083;-69
2022/07/14 07:57:30;;;;;;;1.83;1.10;;;;;;;23.12;49.85;100189.13;10536673;28;20040;-69
2022/07/14 08:02:32;;;;;;;1.77;1.20;;;;;;;22.94;49.44;100188.81;10536662;28;20048;-70
2022/07/14 08:07:34;;;;;;;3.45;1.50;;;;;;;22.78;49.82;100189.13;10506872;28;20036;-69
2022/07/14 08:12:38;;;;;;;4.35;1.63;;;;;;;23.16;49.36;100185.22;10519380;28;20062;-68
2022/07/14 08:17:40;;;;;;;4.93;1.30;;;;;;;23.35;48.76;100185.41;10501088;28;20493;-70
2022/07/14 08:22:42;;;;;;;2.47;1.38;;;;;;;23.57;48.63;100173.75;10500097;28;20040;-70
2022/07/14 08:27:44;;;;;;;2.65;1.20;;;;;;;23.83;47.02;100181.47;10508841;28;20162;-68
2022/07/14 08:32:52;;;;;;;4.97;1.25;;;;;;;23.61;47.85;100175.19;10516290;28;20529;-68
2022/07/14 08:37:55;;;;;;;2.60;1.65;;;;;;;23.07;49.03;100170.75;10533473;28;20044;-69
2022/07/14 08:42:57;;;;;;;3.70;1.20;;;;;;;23.62;47.26;100163.47;10492689;28;20083;-69
2022/07/14 08:47:59;;;;;;;2.55;1.75;;;;;;;23.31;48.00;100169.69;10490483;28;20347;-69
2022/07/14 08:53:04;;;;;;;1.65;1.00;;;;;;;23.46;47.91;100160.34;10489871;28;20043;-69
2022/07/14 08:58:09;;;;;;;3.13;1.20;;;;;;;23.85;48.41;100152.66;10503064;28;20060;-69
2022/07/14 09:03:11;;;;;;;2.67;1.23;;;;;;;24.34;47.33;100133.13;10530155;28;20449;-68
2022/07/14 09:08:26;;;;;;;;;;;;;;;23.53;48.23;100136.56;10530975;28;20119;-68
2022/07/14 09:13:31;;;;;;;3.33;1.48;;;;;;;23.29;49.73;100118.88;10530090;28;19927;-69
2022/07/14 09:18:33;;;;;;;2.95;1.65;;;;;;;23.89;48.39;100113.81;10530226;28;20051;-69
2022/07/14 09:23:35;;;;;;;1.70;1.30;;;;;;;23.74;47.60;100113.31;10531079;28;20118;-70
2022/07/14 09:28:45;;;;;;;3.47;1.40;;;;;;;23.74;48.81;100104.41;10530912;28;20040;-69
2022/07/14 09:33:55;;;;;;;2.25;1.45;;;;;;;24.53;46.88;100105.53;10530817;28;20055;-69
2022/07/14 09:39:09;;;;;;;3.25;1.27;;;;;;;25.02;45.34;100103.81;10530500;28;20044;-70
2022/07/14 09:44:14;;;;;;;2.20;1.30;;;;;;;24.77;45.31;100104.31;10529315;28;20101;-69
2022/07/14 09:49:17;;;;;;;3.15;1.23;;;;;;;24.94;45.50;100127.00;10529730;28;20067;-69
2022/07/14 09:54:37;;;;;;;4.40;1.30;;;;;;;25.11;44.89;100126.38;10530173;28;20115;-69
2022/07/14 10:00:16;;;;;;;2.92;1.40;;;;;;;25.13;45.06;100110.91;10529123;28;20142;-68
2022/07/14 10:05:18;;;;;;;1.70;1.15;;;;;;;24.74;45.34;100118.03;10529662;28;20112;-68
2022/07/14 10:10:20;;;;;;;4.70;1.40;;;;;;;24.66;45.46;100119.59;10529248;28;20032;-69
2022/07/14 10:15:22;;;;;;;2.72;1.30;;;;;;;24.40;46.69;100116.53;10529081;28;20036;-69
2022/07/14 10:20:24;;;;;;;3.42;1.63;;;;;;;24.26;46.43;100107.94;10528891;28;20032;-68
2022/07/14 10:25:27;;;;;;;2.72;1.13;;;;;;;24.47;46.32;100103.38;10528218;28;20466;-68
2022/07/14 10:30:38;;;;;;;2.80;1.40;;;;;;;25.40;45.46;100099.44;10528728;28;20119;-69
2022/07/14 10:35:40;;;;;;;2.00;1.30;;;;;;;26.43;42.75;100093.28;10510180;28;20054;-68
2022/07/14 10:41:08;;;;;;;3.30;1.17;;;;;;;27.25;40.73;100080.75;10528651;28;20136;-68
2022/07/14 10:46:10;;;;;;;2.28;1.33;;;;;;;27.05;41.49;100077.28;10510400;28;20044;-68
2022/07/14 10:51:17;;;;;;;3.65;1.35;;;;;;;27.15;40.97;100078.13;10528686;28;20400;-69
2022/07/14 10:56:25;;;;;;;3.55;1.23;;;;;;;27.23;40.53;100070.09;10533057;28;20063;-70
2022/07/14 11:01:27;;;;;;;4.28;1.40;;;;;;;26.85;40.45;100063.97;10539017;28;20064;-69
2022/07/14 11:06:29;;;;;;;2.22;0.90;;;;;;;26.02;42.71;100048.78;10520093;28;20450;-69
2022/07/14 11:11:32;;;;;;;2.78;1.90;;;;;;;26.71;40.63;100042.06;10537521;28;20052;-68
2022/07/14 11:16:50;;;;;;;2.65;1.42;;;;;;;27.29;39.53;100029.00;10537290;28;20117;-70
2022/07/14 11:22:17;;;;;;;1.45;1.20;;;;;;;27.36;39.10;100018.44;10537901;28;20055;-71
2022/07/14 11:27:25;;;;;;;2.65;1.20;;;;;;;27.03;40.36;100017.25;10537811;28;20059;-69
2022/07/14 11:32:32;;;;;;;2.00;1.13;;;;;;;27.25;40.24;100011.41;10537667;28;20055;-70
2022/07/14 11:38:11;;;;;;;3.05;1.25;;;;;;;26.25;41.27;100006.13;10537868;28;20119;-69
2022/07/14 11:43:28;;;;;;;3.55;1.35;;;;;;;26.55;41.04;100000.44;10523054;28;20067;-70
2022/07/14 11:48:33;;;;;;;2.13;0.90;;;;;;;26.55;40.81;100008.53;10539902;28;20040;-70
2022/07/14 11:53:36;;;;;;;2.47;1.35;;;;;;;26.10;41.96;100000.41;10537246;28;20119;-70
2022/07/14 11:58:41;;;;;;;3.33;1.23;;;;;;;26.12;42.33;99977.72;10537079;28;20051;-69
2022/07/14 12:03:43;;;;;;;;;;;;;;;26.19;41.65;99993.28;10549073;22;20044;-73
2022/07/14 12:08:45;;;;;;;4.15;1.30;;;;;;;26.28;41.25;99987.81;10536409;28;19964;-72
2022/07/14 12:14:12;;;;;;;3.15;1.23;;;;;;;26.60;40.47;99989.19;10537622;28;20130;-73
2022/07/14 12:19:13;;;;;;;2.17;1.20;;;;;;;26.50;41.53;99977.66;10517637;28;20043;-72
2022/07/14 12:24:15;;;;;;;2.47;1.20;;;;;;;26.71;40.39;99945.00;10519889;28;20421;-73
2022/07/14 12:29:17;;;;;;;1.48;1.20;;;;;;;26.40;41.67;99958.81;10537181;28;20040;-73
2022/07/14 12:34:20;;;;;;;1.80;1.33;;;;;;;26.14;41.86;99945.22;10536076;28;20049;-71
2022/07/14 12:39:22;;;;;;;3.75;1.40;;;;;;;25.56;43.30;99942.78;10518444;28;20050;-73
2022/07/14 12:44:31;;;;;;;2.05;1.50;;;;;;;25.99;42.36;99939.50;10538521;28;20048;-72
2022/07/14 12:49:45;;;;;;;2.80;1.02;;;;;;;26.66;40.87;99943.63;10537695;28;20478;-73
2022/07/14 12:54:48;;;;;;;2.70;1.20;;;;;;;26.52;41.10;99935.19;10540776;28;20086;-73
2022/07/14 13:00:14;;;;;;;3.15;1.38;;;;;;;26.39;41.54;99936.41;10526798;28;20044;-74
2022/07/14 13:05:16;;;;;;;1.42;1.10;;;;;;;26.12;41.85;99937.31;10549592;28;20048;-73
2022/07/14 13:10:22;;;;;;;3.03;1.30;;;;;;;25.82;42.73;99935.75;10527485;28;20071;-73
2022/07/14 13:15:30;;;;;;;3.50;1.58;;;;;;;25.93;42.49;99929.31;10545473;28;20077;-73
2022/07/14 13:20:50;;;;;;;3.30;1.20;;;;;;;25.75;42.59;99918.47;10524952;28;20051;-72
2022/07/14 13:25:54;;;;;;;2.30;1.20;;;;;;;25.90;42.93;99937.72;10542116;28;20047;-73
2022/07/14 13:30:56;;;;;;;4.25;1.23;;;;;;;25.76;42.83;99938.16;10546012;28;20408;-73
2022/07/14 13:36:00;;;;;;;3.60;1.30;;;;;;;25.56;42.81;99945.47;10526128;28;20504;-73
2022/07/14 13:41:08;;;;;;;2.42;1.20;;;;;;;25.19;43.57;99954.38;10509674;28;20044;-73
2022/07/14 13:46:12;;;;;;;2.20;1.20;;;;;;;25.21;43.98;99940.75;10526358;28;20452;-73
2022/07/14 13:56:37;;;;;;;4.68;1.35;;;;;;;24.86;44.62;99931.44;10545503;28;20512;-73
2022/07/14 14:01:39;;;;;;;1.88;1.20;;;;;;;25.05;44.91;99938.63;10543533;28;20036;-73
2022/07/14 14:06:42;;;;;;;2.47;1.15;;;;;;;24.75;45.39;99931.59;10542460;28;20036;-73
2022/07/14 14:11:45;;;;;;;2.42;1.15;;;;;;;24.63;45.84;99931.72;10542606;28;20048;-72
2022/07/14 14:16:47;;;;;;;3.13;1.48;;;;;;;24.29;46.15;99931.22;10541538;28;20040;-72
2022/07/14 14:21:51;;;;;;;1.90;1.30;;;;;;;24.06;47.86;99919.88;10541966;28;20504;-72
2022/07/14 14:26:52;;;;;;;2.00;1.30;;;;;;;23.62;49.17;99913.91;10524829;28;20063;-73
2022/07/14 14:31:58;;;;;;;2.53;1.50;;;;;;;23.72;49.18;99913.97;10529838;28;20105;-73
2022/07/14 14:37:00;;;;;;;4.82;1.65;;;;;;;23.46;50.12;99920.75;10553570;28;20055;-73
2022/07/14 14:42:02;;;;;;;4.53;2.00;;;;;;;23.55;50.35;99928.88;10550954;28;20052;-72
2022/07/14 14:47:04;;;;;;;4.82;2.00;;;;;;;23.58;50.56;99909.78;10515935;28;20527;-73
2022/07/14 14:52:05;;;;;;;3.67;1.80;;;;;;;23.46;50.58;99920.75;10548872;28;20048;-72
2022/07/14 14:57:07;;;;;;;3.55;2.00;;;;;;;23.55;50.40;99909.22;10548299;28;20079;-72
2022/07/14 15:02:09;;;;;;;3.05;2.00;;;;;;;23.36;51.21;99885.84;10547295;28;20097;-71
2022/07/14 15:07:11;;;;;;;5.72;2.10;;;;;;;23.61;50.61;99887.22;10547393;28;20404;-73
2022/07/14 15:12:12;;;;;;;2.55;1.95;;;;;;;23.63;51.64;99880.72;10547534;28;20409;-73
2022/07/14 15:17:15;;;;;;;2.17;1.60;;;;;;;23.35;51.92;99854.66;10531976;28;20044;-73
2022/07/14 15:22:16;;;;;;;6.97;2.17;;;;;;;23.27;51.90;99874.09;10547946;28;20050;-73
2022/07/14 15:27:23;;;;;;;3.92;2.10;;;;;;;23.03;51.90;99879.75;10547590;28;20033;-73
2022/07/14 15:32:24;;;;;;;7.87;2.20;;;;;;;22.96;52.09;99865.16;10546405;28;20044;-74
2022/07/14 15:37:26;;;;;;;3.60;2.30;;;;;;;23.23;53.25;99855.72;10546229;28;20040;-73
2022/07/14 15:42:28;;;;;;;4.60;2.20;;;;;;;23.01;54.49;99870.97;10547278;28;20040;-74
2022/07/14 15:47:29;;;;;;;3.92;2.30;;;;;;;23.00;54.90;99865.75;10547553;28;20044;-73
2022/07/14 15:52:31;;;;;;;4.50;2.78;;;;;;;22.63;55.23;99868.88;10546496;28;20043;-72
2022/07/14 15:57:33;;;;;;;5.78;2.35;;;;;;;22.61;56.23;99847.56;10546186;28;20050;-73
2022/07/14 16:02:35;;;;;;;3.30;2.97;;;;;;;22.41;57.81;99862.63;10512583;28;20059;-73
2022/07/14 16:07:38;;;;;;;4.18;2.50;;;;;;;22.43;57.09;99851.78;10528314;28;20070;-73
2022/07/14 16:12:40;;;;;;;4.32;2.53;;;;;;;22.41;56.10;99849.25;10546727;28;20040;-72
2022/07/14 16:17:41;;;;;;;5.95;2.83;;;;;;;22.08;58.30;99849.34;10547723;28;20099;-73
2022/07/14 16:22:44;;;;;;;6.53;4.32;;;;;;;21.99;60.00;99848.25;10555893;28;20127;-72
2022/07/14 16:27:46;;;;;;;6.40;3.95;;;;;;;21.80;61.39;99848.09;10553661;28;20572;-73
2022/07/14 16:32:48;;;;;;;4.60;3.05;;;;;;;21.97;58.46;99818.13;10532515;28;20075;-73
2022/07/14 16:37:50;;;;;;;6.10;2.90;;;;;;;22.09;58.38;99822.47;10529513;28;20071;-73
2022/07/14 16:42:51;;;;;;;6.15;3.10;;;;;;;21.97;58.80;99815.44;10546469;28;20114;-73
2022/07/14 16:47:55;;;;;;;8.43;3.50;;;;;;;22.14;58.75;99811.41;10549576;28;20040;-74
2022/07/14 16:52:57;;;;;;;5.38;2.78;;;;;;;22.42;56.72;99800.06;10555676;28;20048;-75
2022/07/14 16:57:59;;;;;;;4.88;3.00;;;;;;;22.18;57.72;99804.81;10533946;28;20094;-75
2022/07/14 17:03:00;;;;;;;3.80;2.78;;;;;;;22.47;55.75;99788.94;10551990;28;20036;-75
2022/07/14 17:08:22;;;;;;;5.30;2.97;;;;;;;22.60;55.37;99789.59;10556122;28;20038;-75
2022/07/14 17:13:24;;;;;;;3.67;2.47;;;;;;;22.82;54.24;99772.53;10531788;28;20079;-74
2022/07/14 17:18:26;;;;;;;7.30;3.65;;;;;;;22.76;53.95;99780.25;10530664;28;20051;-74
2022/07/14 17:23:29;;;;;;;5.93;2.85;;;;;;;22.71;53.33;99787.81;10517340;28;20067;-75
2022/07/14 17:28:32;;;;;;;5.80;2.70;;;;;;;22.69;53.48;99787.97;10534925;28;20047;-75
2022/07/14 17:33:33;;;;;;;6.25;3.38;;;;;;;22.65;53.83;99790.06;10536966;28;20504;-76
2022/07/14 17:38:36;;;;;;;5.10;2.72;;;;;;;22.25;54.13;99795.28;10532144;28;20036;-76
2022/07/14 17:43:37;;;;;;;4.78;3.05;;;;;;;22.25;54.15;99792.59;10531542;28;20501;-74
2022/07/14 17:48:40;;;;;;;4.70;2.53;;;;;;;22.21;54.37;99801.84;10514879;28;20044;-75
2022/07/14 17:53:42;;;;;;;6.80;2.85;;;;;;;22.14;54.53;99816.75;10536231;28;20047;-75
2022/07/14 17:59:05;;;;;;;7.13;3.15;;;;;;;22.09;54.93;99808.19;10532123;28;20389;-74
2022/07/14 18:04:06;;;;;;;4.57;2.88;;;;;;;22.04;55.26;99819.28;10537062;22;20131;-69
2022/07/14 18:09:08;;;;;;;3.83;2.58;;;;;;;21.84;56.11;99810.25;10540023;28;20512;-70
2022/07/14 18:14:10;;;;;;;6.38;2.67;;;;;;;22.00;55.46;99820.56;10539585;28;20044;-70
2022/07/14 18:19:12;;;;;;;6.05;2.70;;;;;;;22.02;55.76;99820.41;10538744;28;20505;-70
2022/07/14 18:24:14;;;;;;;4.47;2.88;;;;;;;22.06;55.62;99829.88;10539416;28;20442;-70
2022/07/14 18:29:16;;;;;;;5.43;3.42;;;;;;;22.08;55.61;99835.94;10539491;28;20119;-70
2022/07/14 18:34:18;;;;;;;4.40;3.13;;;;;;;22.01;55.94;99840.13;10520990;28;20050;-70
2022/07/14 18:39:20;;;;;;;5.47;3.45;;;;;;;22.10;55.69;99834.88;10538731;28;20552;-69
2022/07/14 18:44:22;;;;;;;3.25;2.53;;;;;;;21.90;56.14;99838.31;10538631;28;20426;-70
2022/07/14 18:49:24;;;;;;;5.55;3.15;;;;;;;21.79;56.68;99828.50;10538571;28;20519;-70
2022/07/14 18:54:25;;;;;;;4.75;2.83;;;;;;;21.75;56.35;99834.22;10537729;28;20051;-69
2022/07/14 18:59:28;;;;;;;5.65;3.50;;;;;;;21.73;55.89;99842.38;10538222;28;20040;-70
2022/07/14 19:04:30;;;;;;;6.38;2.80;;;;;;;21.61;56.55;99856.75;10538471;28;20072;-69
2022/07/14 19:09:31;;;;;;;5.40;2.85;;;;;;;21.45;56.65;99873.16;10519902;28;20040;-70
2022/07/14 19:14:34;;;;;;;7.30;2.90;;;;;;;21.33;57.39;99882.16;10537906;28;20067;-70
2022/07/14 19:19:36;;;;;;;4.90;2.65;;;;;;;21.10;54.92;99883.91;10528012;28;20040;-70
2022/07/14 19:24:37;;;;;;;8.30;1.52;;;;;;;20.98;49.54;99888.38;10528679;28;20052;-70
2022/07/14 19:29:39;;;;;;;3.22;1.58;;;;;;;20.99;46.24;99902.63;10545838;28;20064;-70
2022/07/14 19:34:41;;;;;;;5.28;0.90;;;;;;;20.86;42.71;99921.41;10526716;28;20609;-70
2022/07/14 19:39:43;;;;;;;7.93;1.83;;;;;;;20.87;41.25;99923.13;10545979;28;20119;-69
2022/07/14 19:44:44;;;;;;;3.22;1.08;;;;;;;20.56;39.82;99938.78;10545988;28;20496;-69
2022/07/14 19:49:46;;;;;;;3.35;0.82;;;;;;;20.69;39.32;99953.91;10544624;28;20480;-69
2022/07/14 19:54:49;;;;;;;3.22;0.90;;;;;;;20.48;39.33;99962.53;10544841;28;20127;-69
2022/07/14 19:59:50;;;;;;;1.88;0.80;;;;;;;20.51;39.97;99980.16;10544029;28;20047;-70
2022/07/14 20:05:13;;;;;;;4.53;0.80;;;;;;;20.34;40.27;100000.03;10544046;28;20032;-69
2022/07/14 20:10:15;;;;;;;4.00;1.05;;;;;;;20.42;40.13;99993.19;10543684;28;20493;-70
2022/07/14 20:15:16;;;;;;;2.10;0.77;;;;;;;20.34;39.71;100003.56;10543440;28;20051;-69
2022/07/14 20:20:18;;;;;;;1.70;0.52;;;;;;;20.17;40.00;100018.13;10544037;28;20062;-69
2022/07/14 20:25:22;;;;;;;3.88;0.85;;;;;;;20.23;40.31;100018.63;10543127;28;20036;-69
2022/07/14 20:35:44;;;;;;;5.07;0.82;;;;;;;19.80;41.07;100029.72;10542937;28;20443;-69
2022/07/14 20:40:46;;;;;;;2.17;0.60;;;;;;;19.96;40.84;100035.66;10527142;28;20058;-69
2022/07/14 20:45:48;;;;;;;3.80;0.63;;;;;;;20.04;41.04;100045.78;10525531;28;20465;-69
2022/07/14 20:50:49;;;;;;;1.65;0.45;;;;;;;19.71;41.56;100039.22;10542267;28;20040;-69
2022/07/14 20:55:51;;;;;;;2.47;0.68;;;;;;;19.58;41.79;100040.97;10524209;28;20426;-69
2022/07/14 21:00:53;;;;;;;3.05;0.65;;;;;;;19.75;41.61;100050.53;10541679;28;20066;-69
2022/07/14 21:06:16;;;;;;;2.78;0.70;;;;;;;19.70;41.83;100045.50;10526720;28;20056;-69
2022/07/14 21:11:18;;;;;;;2.53;0.88;;;;;;;19.65;42.02;100048.47;10524399;28;20055;-69
2022/07/14 21:16:19;;;;;;;2.92;0.70;;;;;;;19.58;42.04;100052.50;10541622;28;20063;-69
2022/07/14 21:21:21;;;;;;;2.55;0.60;;;;;;;19.39;42.64;100070.72;10541446;28;20089;-69
2022/07/14 21:26:23;;;;;;;5.57;0.98;;;;;;;19.18;43.11;100070.34;10540566;28;20052;-70
2022/07/14 21:31:25;;;;;;;2.08;0.40;;;;;;;19.14;43.28;100080.34;10540621;28;20126;-70
2022/07/14 21:36:27;;;;;;;2.45;0.55;;;;;;;19.05;43.70;100096.09;10540296;28;20044;-68
2022/07/14 21:41:28;;;;;;;1.95;0.63;;;;;;;18.91;44.19;100094.34;10539860;28;20090;-68
2022/07/14 21:46:30;;;;;;;3.10;0.75;;;;;;;18.67;44.95;100094.91;10539889;28;20092;-68
2022/07/14 21:51:32;;;;;;;5.70;0.63;;;;;;;18.56;45.30;100101.91;10539871;28;20040;-68
2022/07/14 21:56:37;;;;;;;2.58;0.50;;;;;;;18.37;45.28;100105.72;10540125;28;20044;-68
2022/07/14 22:01:39;;;;;;;4.68;0.88;;;;;;;18.11;45.73;100107.34;10521493;28;20037;-68
2022/07/14 22:06:41;;;;;;;2.10;0.65;;;;;;;18.02;45.23;100113.25;10521056;28;20067;-68
2022/07/14 22:11:43;;;;;;;3.15;0.90;;;;;;;17.91;45.59;100126.31;10539796;28;20056;-70
2022/07/14 22:16:44;;;;;;;2.15;0.80;;;;;;;17.86;45.49;100133.72;10538999;28;20058;-70
2022/07/14 22:21:47;;;;;;;1.30;0.60;;;;;;;17.70;45.79;100138.22;10538974;28;20047;-68
2022/07/14 22:32:10;;;;;;;2.35;0.82;;;;;;;17.43;46.72;100157.50;10539330;28;20036;-68
2022/07/14 22:37:12;;;;;;;2.38;0.80;;;;;;;17.14;46.99;100159.19;10539294;28;20424;-70
2022/07/14 22:42:14;;;;;;;2.60;0.85;;;;;;;17.02;46.72;100165.19;10538636;28;20115;-69
2022/07/14 22:47:17;;;;;;;1.63;0.70;;;;;;;16.89;47.13;100172.97;10520716;28;20508;-69
2022/07/14 22:52:20;;;;;;;2.40;0.60;;;;;;;17.03;46.94;100180.16;10542877;28;20044;-70
2022/07/14 22:57:22;;;;;;;2.25;0.60;;;;;;;17.06;46.87;100180.00;10548557;28;20468;-70
2022/07/14 23:02:23;;;;;;;2.65;0.60;;;;;;;16.90;47.28;100185.31;10546421;28;20097;-70
2022/07/14 23:07:25;;;;;;;3.22;0.68;;;;;;;16.89;47.42;100194.22;10547415;28;20397;-70
2022/07/14 23:12:29;;;;;;;2.97;0.55;;;;;;;17.00;46.90;100193.59;10546270;28;20106;-70
2022/07/14 23:17:31;;;;;;;1.08;0.50;;;;;;;16.87;47.02;100196.97;10546498;28;20405;-70
2022/07/14 23:22:32;;;;;;;2.95;0.60;;;;;;;16.62;47.74;100204.53;10527548;28;20090;-70
2022/07/14 23:27:34;;;;;;;2.90;0.75;;;;;;;16.51;48.11;100199.81;10546214;28;20044;-70
2022/07/14 23:32:37;;;;;;;2.35;0.57;;;;;;;16.27;48.65;100211.69;10546558;28;20036;-70
2022/07/14 23:37:41;;;;;;;2.03;0.60;;;;;;;16.07;48.94;100216.25;10545041;28;20490;-70
2022/07/14 23:42:47;;;;;;;2.50;0.40;;;;;;;15.83;49.36;100217.50;10544633;28;20035;-70